| time (UTC) | temp C | wind direction | speed KPH | gust KPH | rain 1hr cm | rain 24hr cm | rain mn cm | humidity % | barometer mb |
| 20260507051544 | 11 | 204 | 8.0 | 9.7 | 0.00 | 0.00 | 0.00 | 89 | 1022.2 |
| 20260507051040 | 11 | 228 | 3.2 | 3.2 | 0.00 | 0.00 | 0.00 | 89 | 1021.9 |
| 20260507050537 | 11 | 222 | 3.2 | 3.2 | 0.00 | 0.00 | 0.00 | 89 | 1021.9 |
| 20260507050033 | 11 | 244 | 3.2 | 3.2 | 0.00 | 0.00 | 0.00 | 89 | 1021.9 |
| 20260507045530 | 11 | 223 | 4.8 | 4.8 | 0.00 | 0.00 | 0.00 | 89 | 1021.9 |
| 20260507045027 | 11 | 223 | 0.0 | 0.0 | 0.00 | 0.00 | 0.00 | 89 | 1021.9 |
| 20260507044524 | 11 | 228 | 6.4 | 6.4 | 0.00 | 0.00 | 0.00 | 88 | 1021.9 |
| 20260507044021 | 11 | 222 | 4.8 | 4.8 | 0.00 | 0.00 | 0.00 | 88 | 1021.9 |
| 20260507043517 | 11 | 222 | 4.8 | 4.8 | 0.00 | 0.00 | 0.00 | 87 | 1021.9 |
| 20260507043014 | 11 | 222 | 4.8 | 4.8 | 0.00 | 0.00 | 0.00 | 87 | 1021.9 |
| 20260507042510 | 11 | 235 | 6.4 | 6.4 | 0.00 | 0.00 | 0.00 | 86 | 1021.9 |
| 20260507042005 | 12 | 228 | 4.8 | 4.8 | 0.00 | 0.00 | 0.00 | 85 | 1021.9 |
| 20260507041503 | 12 | 246 | 6.4 | 6.4 | 0.00 | 0.00 | 0.00 | 84 | 1021.9 |
| 20260507040959 | 12 | 234 | 3.2 | 3.2 | 0.00 | 0.00 | 0.00 | 83 | 1021.9 |
| 20260507040455 | 12 | 198 | 6.4 | 8.0 | 0.00 | 0.00 | 0.00 | 83 | 1021.9 |
| 20260507035951 | 12 | 216 | 11.3 | 11.3 | 0.00 | 0.00 | 0.00 | 83 | 1021.9 |
| 20260507035448 | 12 | 222 | 6.4 | 8.0 | 0.00 | 0.00 | 0.00 | 83 | 1021.6 |
| 20260507034945 | 12 | 228 | 8.0 | 9.7 | 0.00 | 0.00 | 0.00 | 83 | 1021.6 |
| 20260507034442 | 12 | 228 | 6.4 | 6.4 | 0.00 | 0.00 | 0.00 | 83 | 1021.6 |
| 20260507033940 | 12 | 240 | 3.2 | 3.2 | 0.00 | 0.00 | 0.00 | 83 | 1021.6 |
| 20260507033437 | 12 | 222 | 4.8 | 6.4 | 0.00 | 0.00 | 0.00 | 83 | 1021.2 |
| 20260507032934 | 12 | 234 | 4.8 | 6.4 | 0.00 | 0.00 | 0.00 | 83 | 1021.6 |
| 20260507032431 | 12 | 244 | 4.8 | 4.8 | 0.00 | 0.00 | 0.00 | 83 | 1021.6 |
| 20260507031927 | 12 | 246 | 4.8 | 4.8 | 0.00 | 0.00 | 0.00 | 82 | 1021.6 |
| 20260507031426 | 12 | 222 | 6.4 | 6.4 | 0.00 | 0.00 | 0.00 | 82 | 1021.2 |
| 20260507030921 | 12 | 246 | 4.8 | 4.8 | 0.00 | 0.00 | 0.00 | 82 | 1021.2 |
| 20260507030418 | 12 | 222 | 8.0 | 9.7 | 0.00 | 0.00 | 0.00 | 82 | 1021.2 |
| 20260507025915 | 12 | 222 | 6.4 | 8.0 | 0.00 | 0.00 | 0.00 | 82 | 1021.2 |
| 20260507025412 | 12 | 144 | 4.8 | 4.8 | 0.00 | 0.00 | 0.00 | 82 | 1021.2 |
| 20260507024910 | 12 | 240 | 4.8 | 4.8 | 0.00 | 0.00 | 0.00 | 82 | 1021.2 |
| 20260507024407 | 12 | 216 | 4.8 | 4.8 | 0.00 | 0.00 | 0.00 | 81 | 1021.6 |
| 20260507023903 | 12 | 234 | 4.8 | 4.8 | 0.00 | 0.00 | 0.00 | 81 | 1021.2 |
| 20260507023400 | 12 | 234 | 4.8 | 6.4 | 0.00 | 0.00 | 0.00 | 81 | 1021.2 |
| 20260507022857 | 12 | 235 | 8.0 | 9.7 | 0.00 | 0.00 | 0.00 | 81 | 1020.9 |
| 20260507022354 | 12 | 228 | 8.0 | 8.0 | 0.00 | 0.00 | 0.00 | 81 | 1021.2 |
| 20260507021850 | 12 | 236 | 3.2 | 3.2 | 0.00 | 0.00 | 0.00 | 81 | 1021.2 |
| 20260507021345 | 13 | 252 | 3.2 | 3.2 | 0.00 | 0.00 | 0.00 | 81 | 1021.2 |
| 20260507020843 | 13 | 235 | 3.2 | 3.2 | 0.00 | 0.00 | 0.00 | 80 | 1020.9 |
| 20260507020339 | 13 | 224 | 3.2 | 3.2 | 0.00 | 0.00 | 0.00 | 80 | 1021.2 |
| 20260507015836 | 13 | 222 | 3.2 | 3.2 | 0.00 | 0.00 | 0.00 | 80 | 1021.2 |
| 20260507015334 | 13 | 216 | 4.8 | 4.8 | 0.00 | 0.00 | 0.00 | 80 | 1021.2 |
| 20260507014831 | 13 | 222 | 4.8 | 6.4 | 0.00 | 0.00 | 0.00 | 80 | 1021.2 |
| 20260507014327 | 13 | 216 | 3.2 | 3.2 | 0.00 | 0.00 | 0.00 | 80 | 1021.2 |
| 20260507013824 | 13 | 218 | 9.7 | 9.7 | 0.00 | 0.00 | 0.00 | 80 | 1021.2 |
| 20260507013321 | 13 | 270 | 8.0 | 9.7 | 0.00 | 0.00 | 0.00 | 80 | 1021.2 |
| 20260507012819 | 13 | 258 | 3.2 | 3.2 | 0.00 | 0.00 | 0.00 | 79 | 1021.2 |
| 20260507012314 | 13 | 234 | 6.4 | 6.4 | 0.00 | 0.00 | 0.00 | 79 | 1021.6 |
| 20260507011806 | 13 | 236 | 3.2 | 3.2 | 0.00 | 0.00 | 0.00 | 79 | 1021.2 |
| 20260507011303 | 13 | 216 | 4.8 | 4.8 | 0.00 | 0.00 | 0.00 | 79 | 1021.6 |
| 20260507010802 | 13 | 222 | 3.2 | 3.2 | 0.00 | 0.00 | 0.00 | 79 | 1021.2 |
| 20260507010258 | 13 | 222 | 8.0 | 9.7 | 0.00 | 0.00 | 0.00 | 79 | 1021.6 |
| 20260507005756 | 13 | 222 | 1.6 | 1.6 | 0.00 | 0.00 | 0.00 | 79 | 1021.6 |
| 20260507005252 | 13 | 240 | 3.2 | 3.2 | 0.00 | 0.00 | 0.00 | 79 | 1021.6 |
| 20260507004749 | 13 | 240 | 3.2 | 3.2 | 0.00 | 0.00 | 0.00 | 79 | 1021.6 |
| 20260507004247 | 13 | 234 | 3.2 | 3.2 | 0.00 | 0.00 | 0.00 | 79 | 1021.6 |
| 20260507003743 | 13 | 240 | 4.8 | 4.8 | 0.00 | 0.00 | 0.00 | 80 | 1021.6 |
| 20260507003238 | 13 | 216 | 3.2 | 3.2 | 0.00 | 0.00 | 0.00 | 80 | 1021.6 |
| 20260507002734 | 13 | 206 | 4.8 | 4.8 | 0.00 | 0.00 | 0.00 | 79 | 1021.6 |
| 20260507002230 | 13 | 240 | 9.7 | 9.7 | 0.00 | 0.00 | 0.00 | 80 | 1021.6 |
| 20260507001727 | 13 | 222 | 4.8 | 4.8 | 0.00 | 0.00 | 0.00 | 80 | 1021.6 |
| 20260507001225 | 13 | 240 | 6.4 | 6.4 | 0.00 | 0.00 | 0.00 | 80 | 1021.6 |
| 20260507000721 | 13 | 246 | 8.0 | 9.7 | 0.00 | 0.00 | 0.00 | 80 | 1021.6 |
| 20260507000216 | 13 | 240 | 11.3 | 11.3 | 0.00 | 0.00 | 0.00 | 80 | 1021.9 |
| 20260506235714 | 13 | 216 | 6.4 | 6.4 | 0.00 | 0.00 | 0.00 | 79 | 1021.6 |
| 20260506235209 | 13 | 218 | 6.4 | 6.4 | 0.00 | 0.00 | 0.00 | 78 | 1021.6 |
| 20260506234706 | 13 | 222 | 4.8 | 4.8 | 0.00 | 0.00 | 0.00 | 78 | 1021.6 |
| 20260506234204 | 13 | 237 | 8.0 | 9.7 | 0.00 | 0.00 | 0.00 | 78 | 1021.6 |
| 20260506233701 | 13 | 264 | 9.7 | 9.7 | 0.00 | 0.00 | 0.00 | 78 | 1021.6 |
| 20260506233157 | 13 | 264 | 9.7 | 9.7 | 0.00 | 0.00 | 0.00 | 78 | 1021.6 |
| 20260506232654 | 13 | 323 | 3.2 | 3.2 | 0.00 | 0.00 | 0.00 | 78 | 1021.6 |
| 20260506232149 | 13 | 216 | 6.4 | 6.4 | 0.00 | 0.00 | 0.00 | 78 | 1021.6 |
| 20260506231646 | 13 | 210 | 9.7 | 9.7 | 0.00 | 0.00 | 0.00 | 77 | 1021.6 |
| 20260506231145 | 13 | 246 | 8.0 | 9.7 | 0.00 | 0.00 | 0.00 | 77 | 1021.6 |
| 20260506230641 | 14 | 270 | 8.0 | 8.0 | 0.00 | 0.00 | 0.00 | 77 | 1021.2 |
| 20260506230138 | 13 | 262 | 6.4 | 6.4 | 0.00 | 0.00 | 0.00 | 77 | 1021.2 |
| 20260506225635 | 13 | 255 | 6.4 | 6.4 | 0.00 | 0.00 | 0.00 | 77 | 1021.2 |
| 20260506225131 | 13 | 234 | 9.7 | 9.7 | 0.00 | 0.00 | 0.00 | 77 | 1021.2 |
| 20260506224628 | 13 | 246 | 9.7 | 11.3 | 0.00 | 0.00 | 0.00 | 78 | 1021.2 |
| 20260506224124 | 13 | 222 | 4.8 | 4.8 | 0.00 | 0.00 | 0.00 | 77 | 1021.6 |
| 20260506223621 | 13 | 240 | 6.4 | 8.0 | 0.00 | 0.00 | 0.00 | 77 | 1021.6 |
| 20260506223117 | 13 | 224 | 8.0 | 8.0 | 0.00 | 0.00 | 0.00 | 78 | 1021.6 |
| 20260506222614 | 13 | 252 | 4.8 | 6.4 | 0.00 | 0.00 | 0.00 | 78 | 1021.6 |
| 20260506222110 | 13 | 222 | 6.4 | 6.4 | 0.00 | 0.00 | 0.00 | 79 | 1021.6 |
| 20260506221608 | 13 | 249 | 8.0 | 9.7 | 0.00 | 0.00 | 0.00 | 79 | 1021.6 |
| 20260506221106 | 13 | 246 | 6.4 | 6.4 | 0.00 | 0.00 | 0.00 | 78 | 1021.9 |
| 20260506220602 | 13 | 234 | 8.0 | 8.0 | 0.00 | 0.00 | 0.00 | 78 | 1021.6 |
| 20260506220057 | 13 | 258 | 4.8 | 6.4 | 0.00 | 0.00 | 0.00 | 79 | 1021.9 |
| 20260506215554 | 13 | 240 | 6.4 | 6.4 | 0.00 | 0.00 | 0.00 | 79 | 1021.6 |
| 20260506215050 | 13 | 276 | 6.4 | 6.4 | 0.00 | 0.00 | 0.00 | 79 | 1021.6 |
| 20260506214547 | 13 | 210 | 9.7 | 9.7 | 0.00 | 0.00 | 0.00 | 80 | 1021.9 |
| 20260506214044 | 13 | 216 | 3.2 | 3.2 | 0.00 | 0.00 | 0.00 | 79 | 1021.6 |
| 20260506213543 | 13 | 240 | 9.7 | 9.7 | 0.00 | 0.00 | 0.00 | 80 | 1021.6 |
| 20260506213040 | 13 | 210 | 9.7 | 11.3 | 0.00 | 0.00 | 0.00 | 79 | 1021.6 |
| 20260506212536 | 13 | 222 | 8.0 | 9.7 | 0.00 | 0.00 | 0.00 | 79 | 1021.6 |
| 20260506212031 | 13 | 240 | 6.4 | 6.4 | 0.00 | 0.00 | 0.00 | 79 | 1021.9 |
| 20260506211527 | 13 | 228 | 9.7 | 9.7 | 0.00 | 0.00 | 0.00 | 79 | 1021.6 |
| 20260506211024 | 13 | 234 | 11.3 | 12.9 | 0.00 | 0.00 | 0.00 | 79 | 1021.9 |
| 20260506210521 | 13 | 250 | 9.7 | 11.3 | 0.00 | 0.00 | 0.00 | 78 | 1021.6 |
| 20260506210017 | 13 | 210 | 6.4 | 6.4 | 0.00 | 0.00 | 0.00 | 79 | 1021.2 |
| 20260506205514 | 13 | 216 | 9.7 | 11.3 | 0.00 | 0.00 | 0.00 | 78 | 1021.2 |
| 20260506205009 | 13 | 252 | 6.4 | 6.4 | 0.00 | 0.00 | 0.00 | 78 | 1021.6 |
| 20260506204508 | 13 | 210 | 9.7 | 9.7 | 0.00 | 0.00 | 0.00 | 78 | 1021.9 |
| 20260506204004 | 13 | 210 | 16.1 | 17.7 | 0.00 | 0.00 | 0.00 | 77 | 1021.2 |
| 20260506203502 | 13 | 234 | 6.4 | 6.4 | 0.00 | 0.00 | 0.00 | 78 | 1021.6 |
| 20260506202958 | 13 | 271 | 9.7 | 9.7 | 0.00 | 0.00 | 0.00 | 77 | 1021.2 |
| 20260506202456 | 13 | 263 | 6.4 | 6.4 | 0.00 | 0.00 | 0.00 | 78 | 1021.2 |
| 20260506201946 | 13 | 264 | 8.0 | 8.0 | 0.00 | 0.00 | 0.00 | 77 | 1021.2 |
| 20260506201444 | 13 | 210 | 8.0 | 9.7 | 0.00 | 0.00 | 0.00 | 78 | 1021.2 |
| 20260506200941 | 13 | 224 | 8.0 | 9.7 | 0.00 | 0.00 | 0.00 | 78 | 1021.2 |
| 20260506200437 | 13 | 256 | 8.0 | 9.7 | 0.00 | 0.00 | 0.00 | 79 | 1021.2 |
| 20260506195933 | 13 | 282 | 11.3 | 11.3 | 0.00 | 0.00 | 0.00 | 79 | 1021.2 |
| 20260506195430 | 13 | 222 | 6.4 | 6.4 | 0.00 | 0.00 | 0.00 | 79 | 1021.6 |
| 20260506194927 | 12 | 216 | 9.7 | 9.7 | 0.00 | 0.00 | 0.00 | 80 | 1021.2 |
| 20260506194424 | 12 | 240 | 6.4 | 8.0 | 0.00 | 0.00 | 0.00 | 79 | 1021.6 |
| 20260506193921 | 13 | 204 | 14.5 | 16.1 | 0.00 | 0.00 | 0.00 | 79 | 1021.2 |
| 20260506193419 | 13 | 216 | 9.7 | 9.7 | 0.00 | 0.00 | 0.00 | 79 | 1021.6 |
| 20260506192915 | 13 | 222 | 6.4 | 6.4 | 0.00 | 0.00 | 0.00 | 79 | 1020.9 |
| 20260506192412 | 13 | 228 | 8.0 | 8.0 | 0.00 | 0.00 | 0.00 | 79 | 1021.2 |
| 20260506191909 | 13 | 218 | 8.0 | 9.7 | 0.00 | 0.00 | 0.00 | 79 | 1020.9 |
| 20260506191405 | 12 | 252 | 9.7 | 11.3 | 0.00 | 0.00 | 0.00 | 80 | 1021.2 |
| 20260506190902 | 13 | 257 | 12.9 | 14.5 | 0.00 | 0.00 | 0.00 | 80 | 1020.9 |
| 20260506190358 | 13 | 231 | 4.8 | 4.8 | 0.00 | 0.00 | 0.00 | 80 | 1020.9 |
| 20260506185855 | 13 | 192 | 9.7 | 11.3 | 0.00 | 0.00 | 0.00 | 80 | 1020.9 |
| 20260506185352 | 13 | 258 | 8.0 | 9.7 | 0.00 | 0.00 | 0.00 | 80 | 1020.9 |
| 20260506184849 | 13 | 262 | 11.3 | 12.9 | 0.00 | 0.00 | 0.00 | 80 | 1020.9 |
| 20260506184346 | 12 | 216 | 3.2 | 3.2 | 0.00 | 0.00 | 0.00 | 81 | 1021.2 |
| 20260506183844 | 12 | 204 | 8.0 | 9.7 | 0.00 | 0.00 | 0.00 | 80 | 1020.9 |
| 20260506183339 | 12 | 217 | 6.4 | 6.4 | 0.00 | 0.00 | 0.00 | 81 | 1021.2 |
| 20260506182836 | 12 | 261 | 8.0 | 9.7 | 0.00 | 0.00 | 0.00 | 83 | 1020.9 |
| 20260506182333 | 12 | 268 | 9.7 | 9.7 | 0.00 | 0.00 | 0.00 | 83 | 1021.2 |
| 20260506181831 | 12 | 252 | 9.7 | 11.3 | 0.00 | 0.00 | 0.00 | 83 | 1021.2 |
| 20260506181329 | 12 | 218 | 3.2 | 3.2 | 0.00 | 0.00 | 0.00 | 83 | 1020.9 |
| 20260506180826 | 12 | 234 | 4.8 | 4.8 | 0.00 | 0.00 | 0.00 | 83 | 1020.9 |
| 20260506180321 | 12 | 216 | 6.4 | 6.4 | 0.00 | 0.00 | 0.00 | 84 | 1020.5 |
| 20260506175818 | 12 | 240 | 6.4 | 8.0 | 0.00 | 0.00 | 0.00 | 84 | 1021.2 |
| 20260506175315 | 12 | 284 | 9.7 | 9.7 | 0.00 | 0.00 | 0.00 | 85 | 1020.9 |
| 20260506174812 | 12 | 240 | 0.0 | 0.0 | 0.00 | 0.00 | 0.00 | 85 | 1020.9 |
| 20260506174309 | 11 | 251 | 6.4 | 8.0 | 0.00 | 0.00 | 0.00 | 86 | 1020.9 |
| 20260506173807 | 11 | 262 | 6.4 | 6.4 | 0.00 | 0.00 | 0.00 | 87 | 1020.9 |
| 20260506173303 | 12 | 174 | 6.4 | 6.4 | 0.00 | 0.00 | 0.00 | 85 | 1020.9 |
| 20260506172801 | 12 | 216 | 6.4 | 6.4 | 0.00 | 0.00 | 0.00 | 86 | 1021.2 |
| 20260506172257 | 11 | 216 | 4.8 | 4.8 | 0.00 | 0.00 | 0.00 | 86 | 1020.9 |
| 20260506171755 | 11 | 252 | 4.8 | 6.4 | 0.00 | 0.00 | 0.00 | 87 | 1021.2 |
| 20260506171251 | 11 | 192 | 8.0 | 9.7 | 0.00 | 0.00 | 0.00 | 87 | 1020.9 |
| 20260506170749 | 11 | 210 | 9.7 | 9.7 | 0.00 | 0.00 | 0.00 | 88 | 1020.5 |
| 20260506170245 | 11 | 244 | 8.0 | 9.7 | 0.00 | 0.00 | 0.00 | 87 | 1020.9 |
| 20260506165744 | 11 | 261 | 3.2 | 3.2 | 0.00 | 0.00 | 0.00 | 86 | 1020.9 |
| 20260506165241 | 11 | 216 | 11.3 | 11.3 | 0.00 | 0.00 | 0.00 | 86 | 1020.9 |
| 20260506164738 | 11 | 223 | 8.0 | 8.0 | 0.00 | 0.00 | 0.00 | 86 | 1020.9 |
| 20260506164235 | 12 | 240 | 6.4 | 6.4 | 0.00 | 0.00 | 0.00 | 86 | 1020.9 |
| 20260506163732 | 12 | 236 | 4.8 | 4.8 | 0.00 | 0.00 | 0.00 | 86 | 1020.9 |
| 20260506163226 | 12 | 222 | 4.8 | 4.8 | 0.00 | 0.00 | 0.00 | 86 | 1020.5 |
| 20260506162723 | 12 | 138 | 6.4 | 6.4 | 0.00 | 0.00 | 0.00 | 86 | 1020.5 |
| 20260506162220 | 12 | 138 | 4.8 | 4.8 | 0.00 | 0.00 | 0.00 | 86 | 1020.5 |
| 20260506161717 | 12 | 162 | 3.2 | 3.2 | 0.00 | 0.00 | 0.00 | 86 | 1020.5 |
| 20260506161214 | 12 | 144 | 4.8 | 6.4 | 0.00 | 0.00 | 0.00 | 86 | 1020.2 |
| 20260506160712 | 11 | 162 | 3.2 | 3.2 | 0.00 | 0.00 | 0.00 | 87 | 1020.5 |
| 20260506160203 | 11 | 120 | 3.2 | 3.2 | 0.00 | 0.00 | 0.00 | 87 | 1020.5 |
| 20260506155701 | 11 | 216 | 6.4 | 6.4 | 0.00 | 0.00 | 0.00 | 88 | 1020.5 |
| 20260506155158 | 11 | 252 | 6.4 | 6.4 | 0.00 | 0.00 | 0.00 | 90 | 1020.9 |
| 20260506153306 | 11 | 146 | 1.6 | 1.6 | 0.00 | 0.00 | 0.00 | 90 | 1020.9 |
| 20260506152803 | 11 | 216 | 3.2 | 3.2 | 0.00 | 0.00 | 0.00 | 92 | 1020.9 |
| 20260506152300 | 11 | 252 | 6.4 | 6.4 | 0.00 | 0.00 | 0.00 | 93 | 1020.5 |
| 20260506151759 | 11 | 168 | 3.2 | 3.2 | 0.00 | 0.00 | 0.00 | 93 | 1020.2 |
| 20260506151255 | 11 | 168 | 3.2 | 3.2 | 0.00 | 0.00 | 0.00 | 93 | 1020.5 |
| 20260506150751 | 10 | 240 | 0.0 | 0.0 | 0.00 | 0.00 | 0.00 | 94 | 1020.5 |
| 20260506150249 | 10 | 150 | 3.2 | 3.2 | 0.00 | 0.00 | 0.00 | 94 | 1020.5 |
| 20260506145745 | 10 | 222 | 3.2 | 3.2 | 0.00 | 0.00 | 0.00 | 94 | 1020.9 |
| 20260506145242 | 10 | 216 | 0.0 | 0.0 | 0.00 | 0.00 | 0.00 | 94 | 1020.5 |
| 20260506144739 | 10 | 216 | 8.0 | 8.0 | 0.00 | 0.00 | 0.00 | 94 | 1020.5 |
| 20260506144236 | 10 | 246 | 3.2 | 3.2 | 0.00 | 0.00 | 0.00 | 94 | 1020.5 |
| 20260506143734 | 10 | 258 | 3.2 | 3.2 | 0.00 | 0.00 | 0.00 | 94 | 1020.5 |
| 20260506143231 | 10 | 240 | 4.8 | 6.4 | 0.00 | 0.00 | 0.00 | 94 | 1020.2 |
| 20260506142730 | 10 | 228 | 3.2 | 3.2 | 0.00 | 0.00 | 0.00 | 94 | 1020.2 |
| 20260506142227 | 10 | 217 | 6.4 | 6.4 | 0.00 | 0.00 | 0.00 | 94 | 1019.8 |
| 20260506141725 | 10 | 174 | 0.0 | 0.0 | 0.00 | 0.00 | 0.00 | 94 | 1020.2 |
| 20260506141223 | 10 | 240 | 1.6 | 1.6 | 0.00 | 0.00 | 0.00 | 94 | 1020.2 |
| 20260506140721 | 10 | 228 | 8.0 | 8.0 | 0.00 | 0.00 | 0.00 | 94 | 1020.2 |
| 20260506140217 | 10 | 162 | 0.0 | 0.0 | 0.00 | 0.00 | 0.00 | 94 | 1020.2 |
| 20260506135714 | 10 | 252 | 0.0 | 0.0 | 0.00 | 0.00 | 0.00 | 94 | 1019.8 |
| 20260506135210 | 10 | 223 | 0.0 | 0.0 | 0.00 | 0.00 | 0.00 | 94 | 1020.2 |
| 20260506134707 | 10 | 228 | 3.2 | 3.2 | 0.00 | 0.00 | 0.00 | 94 | 1019.8 |
| 20260506134203 | 10 | 222 | 4.8 | 6.4 | 0.00 | 0.00 | 0.00 | 94 | 1019.8 |
| 20260506133701 | 10 | 216 | 0.0 | 0.0 | 0.00 | 0.00 | 0.00 | 94 | 1019.8 |
| 20260506133157 | 10 | 222 | 3.2 | 3.2 | 0.00 | 0.00 | 0.00 | 94 | 1019.8 |
| 20260506132655 | 10 | 216 | 3.2 | 3.2 | 0.00 | 0.00 | 0.00 | 94 | 1019.8 |
| 20260506132151 | 11 | 216 | 0.0 | 0.0 | 0.00 | 0.00 | 0.00 | 93 | 1020.2 |
| 20260506131649 | 10 | 216 | 0.0 | 0.0 | 0.00 | 0.00 | 0.00 | 94 | 1019.8 |
| 20260506131145 | 10 | 216 | 3.2 | 3.2 | 0.00 | 0.00 | 0.00 | 93 | 1019.8 |
| 20260506130642 | 11 | 222 | 3.2 | 3.2 | 0.00 | 0.00 | 0.00 | 93 | 1019.4 |
| 20260506130139 | 11 | 222 | 0.0 | 0.0 | 0.00 | 0.00 | 0.00 | 93 | 1019.8 |
| 20260506125638 | 11 | 228 | 3.2 | 3.2 | 0.00 | 0.00 | 0.00 | 93 | 1019.4 |
| 20260506125135 | 11 | 210 | 3.2 | 3.2 | 0.00 | 0.00 | 0.00 | 93 | 1019.4 |
| 20260506124633 | 11 | 210 | 3.2 | 3.2 | 0.00 | 0.00 | 0.00 | 92 | 1019.4 |
| 20260506124130 | 11 | 235 | 4.8 | 6.4 | 0.00 | 0.00 | 0.00 | 92 | 1019.4 |
| 20260506123628 | 11 | 210 | 3.2 | 3.2 | 0.00 | 0.00 | 0.00 | 92 | 1019.8 |
| 20260506123126 | 11 | 210 | 0.0 | 0.0 | 0.00 | 0.00 | 0.00 | 92 | 1019.4 |
| 20260506122622 | 11 | 210 | 3.2 | 3.2 | 0.00 | 0.00 | 0.00 | 92 | 1019.4 |
| 20260506122120 | 11 | 222 | 3.2 | 3.2 | 0.00 | 0.00 | 0.00 | 91 | 1019.4 |
| 20260506121618 | 11 | 216 | 3.2 | 3.2 | 0.00 | 0.00 | 0.00 | 91 | 1019.4 |
| 20260506121114 | 11 | 244 | 4.8 | 4.8 | 0.00 | 0.00 | 0.00 | 91 | 1019.4 |
| 20260506120612 | 11 | 217 | 4.8 | 6.4 | 0.00 | 0.00 | 0.00 | 91 | 1019.4 |
| 20260506120109 | 11 | 240 | 4.8 | 4.8 | 0.00 | 0.00 | 0.00 | 90 | 1019.4 |
| 20260506115608 | 11 | 210 | 4.8 | 4.8 | 0.00 | 0.00 | 0.00 | 90 | 1019.1 |
| 20260506115105 | 11 | 210 | 3.2 | 3.2 | 0.00 | 0.00 | 0.00 | 91 | 1018.8 |
| 20260506114602 | 11 | 216 | 4.8 | 4.8 | 0.00 | 0.00 | 0.00 | 90 | 1019.1 |
| 20260506114101 | 11 | 229 | 4.8 | 4.8 | 0.00 | 0.00 | 0.00 | 90 | 1019.1 |
| 20260506113558 | 11 | 210 | 3.2 | 3.2 | 0.00 | 0.00 | 0.00 | 90 | 1019.1 |
| 20260506113055 | 11 | 228 | 1.6 | 1.6 | 0.00 | 0.00 | 0.00 | 90 | 1019.1 |
| 20260506112551 | 11 | 240 | 0.0 | 0.0 | 0.00 | 0.00 | 0.00 | 90 | 1019.1 |
| 20260506112049 | 11 | 252 | 3.2 | 3.2 | 0.00 | 0.00 | 0.00 | 90 | 1019.1 |
| 20260506111547 | 11 | 228 | 3.2 | 3.2 | 0.00 | 0.00 | 0.00 | 90 | 1019.1 |
| 20260506111044 | 11 | 144 | 4.8 | 4.8 | 0.00 | 0.00 | 0.00 | 90 | 1019.1 |
| 20260506110542 | 11 | 180 | 3.2 | 3.2 | 0.00 | 0.00 | 0.00 | 90 | 1019.1 |
| 20260506110039 | 11 | 240 | 0.0 | 0.0 | 0.00 | 0.00 | 0.00 | 90 | 1019.1 |
| 20260506105535 | 11 | 246 | 0.0 | 0.0 | 0.00 | 0.00 | 0.00 | 90 | 1019.1 |
| 20260506105032 | 11 | 246 | 3.2 | 3.2 | 0.00 | 0.00 | 0.00 | 90 | 1019.1 |
| 20260506104530 | 11 | 250 | 3.2 | 3.2 | 0.00 | 0.00 | 0.00 | 90 | 1019.1 |
| 20260506104028 | 11 | 250 | 3.2 | 3.2 | 0.00 | 0.00 | 0.00 | 89 | 1019.1 |
| 20260506103525 | 11 | 228 | 3.2 | 3.2 | 0.00 | 0.00 | 0.00 | 89 | 1019.1 |
| 20260506103021 | 11 | 228 | 3.2 | 3.2 | 0.00 | 0.00 | 0.00 | 89 | 1018.8 |
| 20260506102520 | 11 | 229 | 3.2 | 3.2 | 0.00 | 0.00 | 0.00 | 89 | 1018.8 |
| 20260506102017 | 11 | 240 | 4.8 | 4.8 | 0.00 | 0.00 | 0.00 | 89 | 1019.1 |
| 20260506101513 | 11 | 240 | 4.8 | 4.8 | 0.00 | 0.00 | 0.00 | 89 | 1018.8 |
| 20260506101011 | 11 | 268 | 8.0 | 8.0 | 0.00 | 0.00 | 0.00 | 89 | 1018.8 |
| 20260506100509 | 11 | 217 | 3.2 | 3.2 | 0.00 | 0.00 | 0.00 | 89 | 1018.8 |
| 20260506100007 | 11 | 218 | 3.2 | 3.2 | 0.00 | 0.00 | 0.00 | 89 | 1018.4 |
| 20260506095505 | 11 | 251 | 1.6 | 1.6 | 0.00 | 0.00 | 0.00 | 89 | 1018.4 |
| 20260506095001 | 11 | 222 | 3.2 | 3.2 | 0.00 | 0.00 | 0.00 | 89 | 1018.4 |
| 20260506094459 | 11 | 210 | 0.0 | 0.0 | 0.00 | 0.00 | 0.00 | 89 | 1018.4 |
| 20260506093956 | 11 | 217 | 0.0 | 0.0 | 0.00 | 0.00 | 0.00 | 88 | 1018.4 |
| 20260506093455 | 11 | 217 | 4.8 | 4.8 | 0.00 | 0.00 | 0.00 | 88 | 1018.4 |
| 20260506092952 | 11 | 216 | 0.0 | 0.0 | 0.00 | 0.00 | 0.00 | 88 | 1018.4 |
| 20260506092450 | 11 | 235 | 3.2 | 3.2 | 0.00 | 0.00 | 0.00 | 88 | 1018.4 |
| 20260506091946 | 11 | 192 | 4.8 | 4.8 | 0.00 | 0.00 | 0.00 | 88 | 1018.1 |
| 20260506091444 | 11 | 174 | 3.2 | 3.2 | 0.00 | 0.00 | 0.00 | 88 | 1018.1 |
| 20260506090941 | 11 | 216 | 6.4 | 6.4 | 0.00 | 0.00 | 0.00 | 88 | 1018.4 |
| 20260506090439 | 11 | 162 | 0.0 | 0.0 | 0.00 | 0.00 | 0.00 | 89 | 1018.1 |
| 20260506085935 | 11 | 210 | 0.0 | 0.0 | 0.00 | 0.00 | 0.00 | 89 | 1018.1 |
| 20260506085432 | 11 | 210 | 0.0 | 0.0 | 0.00 | 0.00 | 0.00 | 89 | 1018.1 |
| 20260506084928 | 11 | 210 | 0.0 | 0.0 | 0.00 | 0.00 | 0.00 | 89 | 1018.1 |
| 20260506084426 | 11 | 234 | 0.0 | 0.0 | 0.00 | 0.00 | 0.00 | 89 | 1018.1 |
| 20260506083921 | 11 | 234 | 0.0 | 0.0 | 0.00 | 0.00 | 0.00 | 89 | 1018.1 |
| 20260506083419 | 11 | 234 | 0.0 | 0.0 | 0.00 | 0.00 | 0.00 | 89 | 1018.1 |
| 20260506082916 | 11 | 234 | 0.0 | 0.0 | 0.00 | 0.00 | 0.00 | 89 | 1018.1 |
| 20260506082414 | 11 | 210 | 0.0 | 0.0 | 0.00 | 0.00 | 0.00 | 89 | 1018.1 |
| 20260506081909 | 11 | 222 | 4.8 | 6.4 | 0.00 | 0.00 | 0.00 | 89 | 1018.1 |
| 20260506081408 | 11 | 216 | 3.2 | 3.2 | 0.00 | 0.00 | 0.00 | 89 | 1018.1 |
| 20260506080904 | 11 | 222 | 0.0 | 0.0 | 0.00 | 0.00 | 0.00 | 89 | 1018.1 |
| 20260506080402 | 11 | 222 | 3.2 | 3.2 | 0.00 | 0.00 | 0.00 | 89 | 1018.1 |
| 20260506073345 | 11 | 228 | 3.2 | 3.2 | 0.00 | 0.00 | 0.00 | 89 | 1017.7 |
| 20260506072842 | 11 | 228 | 3.2 | 3.2 | 0.00 | 0.00 | 0.00 | 89 | 1017.7 |
| 20260506072339 | 11 | 216 | 3.2 | 3.2 | 0.00 | 0.00 | 0.00 | 88 | 1017.7 |
| 20260506071837 | 11 | 216 | 0.0 | 0.0 | 0.00 | 0.00 | 0.00 | 88 | 1017.7 |
| 20260506071335 | 11 | 210 | 0.0 | 0.0 | 0.00 | 0.00 | 0.00 | 88 | 1017.4 |
| 20260506070831 | 11 | 210 | 0.0 | 0.0 | 0.00 | 0.00 | 0.00 | 88 | 1017.4 |
| 20260506070328 | 11 | 210 | 0.0 | 0.0 | 0.00 | 0.00 | 0.00 | 88 | 1017.4 |
| 20260506062300 | 12 | 217 | 8.0 | 8.0 | 0.00 | 0.00 | 0.00 | 86 | 1017.4 |
| 20260506061756 | 12 | 210 | 3.2 | 3.2 | 0.00 | 0.00 | 0.00 | 86 | 1017.1 |
| 20260506061253 | 12 | 222 | 6.4 | 6.4 | 0.00 | 0.00 | 0.00 | 86 | 1017.1 |
| 20260506060751 | 12 | 228 | 6.4 | 6.4 | 0.00 | 0.00 | 0.00 | 86 | 1017.1 |
| 20260506060249 | 12 | 228 | 6.4 | 6.4 | 0.00 | 0.00 | 0.00 | 86 | 1017.1 |